sensor_id;sensor_type;location;lat;lon;timestamp;pressure;altitude;pressure_sealevel;temperature;humidity
76858;BME280;65830;0.000;0.000;2023-09-30T00:01:50;99976.84;;;20.68;46.38
76858;BME280;65830;0.000;0.000;2023-09-30T00:04:17;99981.97;;;20.62;46.48
76858;BME280;65830;0.000;0.000;2023-09-30T00:06:43;99981.22;;;20.47;47.08
76858;BME280;65830;0.000;0.000;2023-09-30T00:09:08;99978.91;;;20.44;47.11
76858;BME280;65830;0.000;0.000;2023-09-30T00:11:34;99983.28;;;20.45;47.35
76858;BME280;65830;0.000;0.000;2023-09-30T00:14:00;99979.59;;;20.53;47.07
76858;BME280;65830;0.000;0.000;2023-09-30T00:16:25;99985.09;;;20.59;46.91
76858;BME280;65830;0.000;0.000;2023-09-30T00:18:51;99972.47;;;20.67;46.69
76858;BME280;65830;0.000;0.000;2023-09-30T00:21:17;99971.03;;;20.71;46.65
76858;BME280;65830;0.000;0.000;2023-09-30T00:23:42;99974.34;;;20.66;46.79
76858;BME280;65830;0.000;0.000;2023-09-30T00:26:07;99970.88;;;20.51;47.19
76858;BME280;65830;0.000;0.000;2023-09-30T00:28:34;99974.41;;;20.51;47.39
76858;BME280;65830;0.000;0.000;2023-09-30T00:31:00;99972.91;;;20.42;47.52
76858;BME280;65830;0.000;0.000;2023-09-30T00:33:25;99979.31;;;20.41;47.69
76858;BME280;65830;0.000;0.000;2023-09-30T00:35:50;99965.44;;;20.44;47.39
76858;BME280;65830;0.000;0.000;2023-09-30T00:38:16;99974.97;;;20.40;47.34
76858;BME280;65830;0.000;0.000;2023-09-30T00:40:48;99965.44;;;20.44;47.44
76858;BME280;65830;0.000;0.000;2023-09-30T00:43:18;99972.09;;;20.48;47.41
76858;BME280;65830;0.000;0.000;2023-09-30T00:45:43;99965.81;;;20.41;47.41
76858;BME280;65830;0.000;0.000;2023-09-30T00:48:09;99966.66;;;20.41;47.32
76858;BME280;65830;0.000;0.000;2023-09-30T00:50:34;99974.16;;;20.46;47.04
76858;BME280;65830;0.000;0.000;2023-09-30T00:53:00;99963.38;;;20.46;47.07
76858;BME280;65830;0.000;0.000;2023-09-30T00:55:25;99967.34;;;20.50;46.92
76858;BME280;65830;0.000;0.000;2023-09-30T00:57:51;99964.84;;;20.49;47.03
76858;BME280;65830;0.000;0.000;2023-09-30T01:00:17;99967.25;;;20.37;47.21
76858;BME280;65830;0.000;0.000;2023-09-30T01:02:44;99968.22;;;20.29;47.28
76858;BME280;65830;0.000;0.000;2023-09-30T01:05:11;99964.50;;;20.30;47.49
76858;BME280;65830;0.000;0.000;2023-09-30T01:07:36;99974.31;;;20.38;47.13
76858;BME280;65830;0.000;0.000;2023-09-30T01:10:02;99979.25;;;20.34;47.29
76858;BME280;65830;0.000;0.000;2023-09-30T01:12:28;99976.41;;;20.42;47.67
76858;BME280;65830;0.000;0.000;2023-09-30T01:14:57;99981.16;;;20.40;47.06
76858;BME280;65830;0.000;0.000;2023-09-30T01:17:22;99977.00;;;20.38;47.33
76858;BME280;65830;0.000;0.000;2023-09-30T01:19:49;99979.31;;;20.41;47.27
76858;BME280;65830;0.000;0.000;2023-09-30T01:22:15;99976.88;;;20.46;47.17
76858;BME280;65830;0.000;0.000;2023-09-30T01:24:42;99976.69;;;20.48;47.07
76858;BME280;65830;0.000;0.000;2023-09-30T01:27:11;99982.47;;;20.51;47.16
76858;BME280;65830;0.000;0.000;2023-09-30T01:29:38;99975.66;;;20.55;46.89
76858;BME280;65830;0.000;0.000;2023-09-30T01:32:07;99974.34;;;20.44;46.89
76858;BME280;65830;0.000;0.000;2023-09-30T01:34:36;99970.72;;;20.31;46.95
76858;BME280;65830;0.000;0.000;2023-09-30T01:37:01;99977.84;;;20.17;47.27
76858;BME280;65830;0.000;0.000;2023-09-30T01:39:27;99969.41;;;20.20;47.44
76858;BME280;65830;0.000;0.000;2023-09-30T01:41:52;99978.03;;;20.15;47.32
76858;BME280;65830;0.000;0.000;2023-09-30T01:44:19;99974.34;;;20.16;47.44
76858;BME280;65830;0.000;0.000;2023-09-30T01:46:45;99979.09;;;20.14;47.47
76858;BME280;65830;0.000;0.000;2023-09-30T01:49:11;99978.81;;;20.09;47.50
76858;BME280;65830;0.000;0.000;2023-09-30T01:51:36;99978.38;;;20.06;47.81
76858;BME280;65830;0.000;0.000;2023-09-30T01:54:02;99972.22;;;20.12;47.69
76858;BME280;65830;0.000;0.000;2023-09-30T01:56:27;99968.69;;;20.11;47.71
76858;BME280;65830;0.000;0.000;2023-09-30T01:58:53;99968.88;;;20.10;47.35
76858;BME280;65830;0.000;0.000;2023-09-30T02:01:18;99970.75;;;20.09;47.68
76858;BME280;65830;0.000;0.000;2023-09-30T02:03:44;99965.13;;;20.04;47.71
76858;BME280;65830;0.000;0.000;2023-09-30T02:06:09;99965.31;;;20.02;47.34
76858;BME280;65830;0.000;0.000;2023-09-30T02:08:35;99970.59;;;19.96;47.60
76858;BME280;65830;0.000;0.000;2023-09-30T02:11:02;99968.97;;;19.95;47.62
76858;BME280;65830;0.000;0.000;2023-09-30T02:13:31;99964.81;;;19.92;47.89
76858;BME280;65830;0.000;0.000;2023-09-30T02:15:57;99961.19;;;19.85;48.00
76858;BME280;65830;0.000;0.000;2023-09-30T02:18:22;99975.25;;;19.80;48.17
76858;BME280;65830;0.000;0.000;2023-09-30T02:20:48;99974.72;;;19.92;48.06
76858;BME280;65830;0.000;0.000;2023-09-30T02:23:15;99979.47;;;19.90;48.11
76858;BME280;65830;0.000;0.000;2023-09-30T02:25:42;99966.41;;;19.87;47.96
76858;BME280;65830;0.000;0.000;2023-09-30T02:28:08;99968.19;;;19.79;48.21
76858;BME280;65830;0.000;0.000;2023-09-30T02:30:34;99963.19;;;19.76;48.12
76858;BME280;65830;0.000;0.000;2023-09-30T02:32:59;99967.28;;;19.72;48.29
76858;BME280;65830;0.000;0.000;2023-09-30T02:35:25;99968.41;;;19.63;48.53
76858;BME280;65830;0.000;0.000;2023-09-30T02:37:51;99963.19;;;19.61;48.57
76858;BME280;65830;0.000;0.000;2023-09-30T02:40:17;99967.94;;;19.59;48.73
76858;BME280;65830;0.000;0.000;2023-09-30T02:42:43;99961.31;;;19.62;48.46
76858;BME280;65830;0.000;0.000;2023-09-30T02:45:09;99960.81;;;19.52;48.86
76858;BME280;65830;0.000;0.000;2023-09-30T02:47:35;99963.25;;;19.47;49.07
76858;BME280;65830;0.000;0.000;2023-09-30T02:50:02;99962.03;;;19.49;48.92
76858;BME280;65830;0.000;0.000;2023-09-30T02:52:27;99963.25;;;19.47;48.88
76858;BME280;65830;0.000;0.000;2023-09-30T02:54:56;99960.75;;;19.45;48.66
76858;BME280;65830;0.000;0.000;2023-09-30T02:57:23;99963.03;;;19.48;48.63
76858;BME280;65830;0.000;0.000;2023-09-30T02:59:48;99961.19;;;19.49;48.46
76858;BME280;65830;0.000;0.000;2023-09-30T03:02:14;99952.09;;;19.50;48.29
76858;BME280;65830;0.000;0.000;2023-09-30T03:04:41;99956.59;;;19.42;48.50
76858;BME280;65830;0.000;0.000;2023-09-30T03:07:09;99949.50;;;19.41;48.65
76858;BME280;65830;0.000;0.000;2023-09-30T03:09:34;99954.91;;;19.41;48.37
76858;BME280;65830;0.000;0.000;2023-09-30T03:12:02;99947.41;;;19.37;48.50
76858;BME280;65830;0.000;0.000;2023-09-30T03:14:30;99956.47;;;19.36;48.69
76858;BME280;65830;0.000;0.000;2023-09-30T03:16:59;99953.97;;;19.34;48.35
76858;BME280;65830;0.000;0.000;2023-09-30T03:19:24;99951.28;;;19.34;48.62
76858;BME280;65830;0.000;0.000;2023-09-30T03:21:50;99948.59;;;19.34;48.89
76858;BME280;65830;0.000;0.000;2023-09-30T03:24:15;99956.03;;;19.32;49.01
76858;BME280;65830;0.000;0.000;2023-09-30T03:26:41;99959.94;;;19.30;49.19
76858;BME280;65830;0.000;0.000;2023-09-30T03:29:07;99962.56;;;19.23;49.39
76858;BME280;65830;0.000;0.000;2023-09-30T03:31:34;99958.81;;;19.24;49.30
76858;BME280;65830;0.000;0.000;2023-09-30T03:34:00;99962.56;;;19.23;49.42
76858;BME280;65830;0.000;0.000;2023-09-30T03:36:26;99953.91;;;19.28;49.29
76858;BME280;65830;0.000;0.000;2023-09-30T03:38:52;99953.84;;;19.21;49.86
76858;BME280;65830;0.000;0.000;2023-09-30T03:41:21;99959.56;;;19.18;49.56
76858;BME280;65830;0.000;0.000;2023-09-30T03:43:46;99960.88;;;19.22;49.58
76858;BME280;65830;0.000;0.000;2023-09-30T03:46:14;99952.72;;;19.15;49.83
76858;BME280;65830;0.000;0.000;2023-09-30T03:48:41;99962.38;;;19.10;50.31
76858;BME280;65830;0.000;0.000;2023-09-30T03:51:11;99966.00;;;19.02;50.36
76858;BME280;65830;0.000;0.000;2023-09-30T03:53:46;99960.91;;;19.07;50.33
76858;BME280;65830;0.000;0.000;2023-09-30T03:56:11;99966.06;;;19.09;50.37
76858;BME280;65830;0.000;0.000;2023-09-30T03:58:38;99958.41;;;19.05;50.54
76858;BME280;65830;0.000;0.000;2023-09-30T04:01:03;99961.44;;;19.02;50.58
76858;BME280;65830;0.000;0.000;2023-09-30T04:03:29;99961.19;;;18.97;50.46
76858;BME280;65830;0.000;0.000;2023-09-30T04:05:55;99960.25;;;18.90;50.62
76858;BME280;65830;0.000;0.000;2023-09-30T04:08:21;99959.00;;;18.78;50.63
76858;BME280;65830;0.000;0.000;2023-09-30T04:10:47;99969.41;;;18.81;50.79
76858;BME280;65830;0.000;0.000;2023-09-30T04:13:13;99968.06;;;18.85;50.54
76858;BME280;65830;0.000;0.000;2023-09-30T04:15:38;99968.09;;;18.77;50.67
76858;BME280;65830;0.000;0.000;2023-09-30T04:18:04;99961.88;;;18.76;50.91
76858;BME280;65830;0.000;0.000;2023-09-30T04:20:33;99961.06;;;18.76;51.11
76858;BME280;65830;0.000;0.000;2023-09-30T04:22:58;99964.38;;;18.63;50.98
76858;BME280;65830;0.000;0.000;2023-09-30T04:25:24;99974.03;;;18.57;50.96
76858;BME280;65830;0.000;0.000;2023-09-30T04:27:50;99983.47;;;18.53;51.03
76858;BME280;65830;0.000;0.000;2023-09-30T04:30:15;99979.19;;;18.44;51.09
76858;BME280;65830;0.000;0.000;2023-09-30T04:32:42;99983.13;;;18.33;51.59
76858;BME280;65830;0.000;0.000;2023-09-30T04:35:07;99986.00;;;18.32;51.52
76858;BME280;65830;0.000;0.000;2023-09-30T04:37:33;99982.28;;;18.33;51.51
76858;BME280;65830;0.000;0.000;2023-09-30T04:39:59;99988.63;;;18.40;51.60
76858;BME280;65830;0.000;0.000;2023-09-30T04:42:24;99988.16;;;18.51;51.28
76858;BME280;65830;0.000;0.000;2023-09-30T04:44:53;99991.88;;;18.50;51.18
76858;BME280;65830;0.000;0.000;2023-09-30T04:47:20;99993.63;;;18.43;51.25
76858;BME280;65830;0.000;0.000;2023-09-30T04:49:47;100001.75;;;18.35;51.58
76858;BME280;65830;0.000;0.000;2023-09-30T04:52:12;99995.56;;;18.34;51.71
76858;BME280;65830;0.000;0.000;2023-09-30T04:54:38;99989.63;;;18.39;51.57
76858;BME280;65830;0.000;0.000;2023-09-30T04:57:03;99991.47;;;18.38;51.22
76858;BME280;65830;0.000;0.000;2023-09-30T04:59:29;99990.19;;;18.34;51.36
76858;BME280;65830;0.000;0.000;2023-09-30T05:01:55;100003.06;;;18.39;51.17
76858;BME280;65830;0.000;0.000;2023-09-30T05:04:21;100006.03;;;18.44;51.12
76858;BME280;65830;0.000;0.000;2023-09-30T05:06:49;99993.63;;;18.43;50.87
76858;BME280;65830;0.000;0.000;2023-09-30T05:09:14;99994.06;;;18.32;51.15
76858;BME280;65830;0.000;0.000;2023-09-30T05:11:40;99999.31;;;18.25;51.48
76858;BME280;65830;0.000;0.000;2023-09-30T05:14:05;100005.78;;;18.16;52.13
76858;BME280;65830;0.000;0.000;2023-09-30T05:16:31;100007.50;;;18.09;52.41
76858;BME280;65830;0.000;0.000;2023-09-30T05:18:57;100005.16;;;18.05;52.61
76858;BME280;65830;0.000;0.000;2023-09-30T05:21:22;100011.19;;;18.08;52.61
76858;BME280;65830;0.000;0.000;2023-09-30T05:23:48;100005.00;;;18.07;52.66
76858;BME280;65830;0.000;0.000;2023-09-30T05:26:14;100011.56;;;18.04;52.71
76858;BME280;65830;0.000;0.000;2023-09-30T05:28:39;100013.41;;;18.04;52.37
76858;BME280;65830;0.000;0.000;2023-09-30T05:31:05;100014.97;;;17.98;52.56
76858;BME280;65830;0.000;0.000;2023-09-30T05:33:31;100016.75;;;18.06;52.59
76858;BME280;65830;0.000;0.000;2023-09-30T05:35:57;100017.03;;;18.11;52.37
76858;BME280;65830;0.000;0.000;2023-09-30T05:38:23;100020.38;;;18.13;52.45
76858;BME280;65830;0.000;0.000;2023-09-30T05:40:49;100023.72;;;18.15;52.23
76858;BME280;65830;0.000;0.000;2023-09-30T05:43:15;100025.00;;;18.28;52.13
76858;BME280;65830;0.000;0.000;2023-09-30T05:45:41;100031.47;;;18.33;52.15
76858;BME280;65830;0.000;0.000;2023-09-30T05:48:14;100019.19;;;18.39;51.84
76858;BME280;65830;0.000;0.000;2023-09-30T05:50:40;100022.34;;;18.42;51.68
76858;BME280;65830;0.000;0.000;2023-09-30T05:53:06;100025.50;;;18.46;51.87
76858;BME280;65830;0.000;0.000;2023-09-30T05:55:32;100024.53;;;18.39;52.02
76858;BME280;65830;0.000;0.000;2023-09-30T05:57:57;100033.63;;;18.38;52.40
76858;BME280;65830;0.000;0.000;2023-09-30T06:00:25;100024.19;;;18.42;52.30
76858;BME280;65830;0.000;0.000;2023-09-30T06:03:00;100030.81;;;18.54;51.60
76858;BME280;65830;0.000;0.000;2023-09-30T06:05:26;100024.63;;;18.69;51.46
76858;BME280;65830;0.000;0.000;2023-09-30T06:07:52;100026.53;;;18.83;51.19
76858;BME280;65830;0.000;0.000;2023-09-30T06:10:19;100032.47;;;18.93;50.81
76858;BME280;65830;0.000;0.000;2023-09-30T06:12:45;100027.75;;;18.95;50.75
76858;BME280;65830;0.000;0.000;2023-09-30T06:15:12;100028.41;;;18.97;51.11
76858;BME280;65830;0.000;0.000;2023-09-30T06:17:38;100034.06;;;19.02;51.07
76858;BME280;65830;0.000;0.000;2023-09-30T06:20:06;100039.16;;;19.12;50.79
76858;BME280;65830;0.000;0.000;2023-09-30T06:23:25;100030.81;;;19.22;50.22
76858;BME280;65830;0.000;0.000;2023-09-30T06:25:50;100035.84;;;19.25;50.17
76858;BME280;65830;0.000;0.000;2023-09-30T06:28:16;100035.63;;;19.41;49.68
76858;BME280;65830;0.000;0.000;2023-09-30T06:30:42;100035.81;;;19.55;48.89
76858;BME280;65830;0.000;0.000;2023-09-30T06:33:10;100028.06;;;19.67;48.93
76858;BME280;65830;0.000;0.000;2023-09-30T06:35:40;100028.88;;;19.82;48.26
76858;BME280;65830;0.000;0.000;2023-09-30T06:38:16;100020.13;;;19.95;47.61
76858;BME280;65830;0.000;0.000;2023-09-30T06:40:42;100035.03;;;20.12;46.92
76858;BME280;65830;0.000;0.000;2023-09-30T06:43:08;100026.63;;;20.22;46.15
76858;BME280;65830;0.000;0.000;2023-09-30T06:45:34;100035.25;;;20.39;45.69
76858;BME280;65830;0.000;0.000;2023-09-30T06:48:08;100029.53;;;20.49;45.28
76858;BME280;65830;0.000;0.000;2023-09-30T06:53:10;100027.66;;;20.71;44.64
76858;BME280;65830;0.000;0.000;2023-09-30T06:55:39;100022.13;;;20.79;44.34
76858;BME280;65830;0.000;0.000;2023-09-30T06:58:05;100030.75;;;20.96;43.50
76858;BME280;65830;0.000;0.000;2023-09-30T07:00:33;100031.56;;;20.96;43.55
76858;BME280;65830;0.000;0.000;2023-09-30T07:02:59;100033.47;;;21.02;43.30
76858;BME280;65830;0.000;0.000;2023-09-30T07:05:24;100030.63;;;21.11;42.91
76858;BME280;65830;0.000;0.000;2023-09-30T07:07:50;100029.19;;;21.15;43.04
76858;BME280;65830;0.000;0.000;2023-09-30T07:10:16;100030.94;;;21.29;42.91
76858;BME280;65830;0.000;0.000;2023-09-30T07:12:42;100037.41;;;21.35;42.76
76858;BME280;65830;0.000;0.000;2023-09-30T07:15:08;100042.88;;;21.48;42.23
76858;BME280;65830;0.000;0.000;2023-09-30T07:17:34;100040.63;;;21.52;41.97
76858;BME280;65830;0.000;0.000;2023-09-30T07:19:59;100038.16;;;21.57;41.82
76858;BME280;65830;0.000;0.000;2023-09-30T07:22:25;100046.91;;;21.66;41.47
76858;BME280;65830;0.000;0.000;2023-09-30T07:24:51;100035.97;;;21.80;41.08
76858;BME280;65830;0.000;0.000;2023-09-30T07:27:16;100044.06;;;21.80;40.97
76858;BME280;65830;0.000;0.000;2023-09-30T07:29:43;100042.63;;;21.85;40.54
76858;BME280;65830;0.000;0.000;2023-09-30T07:32:08;100044.28;;;21.86;41.11
76858;BME280;65830;0.000;0.000;2023-09-30T07:34:34;100049.50;;;21.94;40.65
76858;BME280;65830;0.000;0.000;2023-09-30T07:37:00;100048.28;;;22.03;40.45
76858;BME280;65830;0.000;0.000;2023-09-30T07:39:25;100042.69;;;22.05;40.48
76858;BME280;65830;0.000;0.000;2023-09-30T07:41:51;100043.94;;;22.09;40.47
76858;BME280;65830;0.000;0.000;2023-09-30T07:44:16;100049.75;;;22.12;40.85
76858;BME280;65830;0.000;0.000;2023-09-30T07:49:08;100040.84;;;22.32;40.50
76858;BME280;65830;0.000;0.000;2023-09-30T07:51:34;100046.28;;;22.38;40.43
76858;BME280;65830;0.000;0.000;2023-09-30T07:54:00;100048.56;;;22.41;39.96
76858;BME280;65830;0.000;0.000;2023-09-30T07:56:26;100043.38;;;22.53;39.87
76858;BME280;65830;0.000;0.000;2023-09-30T07:58:51;100038.78;;;22.67;39.87
76858;BME280;65830;0.000;0.000;2023-09-30T08:01:17;100034.66;;;22.78;39.12
76858;BME280;65830;0.000;0.000;2023-09-30T08:03:43;100038.38;;;22.77;38.96
76858;BME280;65830;0.000;0.000;2023-09-30T08:06:08;100040.25;;;22.90;39.67
76858;BME280;65830;0.000;0.000;2023-09-30T08:08:34;100041.06;;;22.97;39.07
76858;BME280;65830;0.000;0.000;2023-09-30T08:11:00;100033.59;;;23.06;39.27
76858;BME280;65830;0.000;0.000;2023-09-30T08:13:26;100039.41;;;23.09;38.45
76858;BME280;65830;0.000;0.000;2023-09-30T08:15:51;100038.94;;;23.19;38.62
76858;BME280;65830;0.000;0.000;2023-09-30T08:18:18;100032.06;;;23.30;38.34
76858;BME280;65830;0.000;0.000;2023-09-30T08:20:44;100035.97;;;23.40;38.58
76858;BME280;65830;0.000;0.000;2023-09-30T08:23:09;100034.03;;;23.54;38.47
76858;BME280;65830;0.000;0.000;2023-09-30T08:25:35;100027.59;;;23.55;38.17
76858;BME280;65830;0.000;0.000;2023-09-30T08:28:00;100022.97;;;23.63;37.87
76858;BME280;65830;0.000;0.000;2023-09-30T08:30:26;100031.53;;;23.59;38.18
76858;BME280;65830;0.000;0.000;2023-09-30T08:32:51;100025.47;;;23.64;37.72
76858;BME280;65830;0.000;0.000;2023-09-30T08:35:17;100027.72;;;23.74;38.18
76858;BME280;65830;0.000;0.000;2023-09-30T08:37:42;100015.41;;;23.85;37.94
76858;BME280;65830;0.000;0.000;2023-09-30T08:40:08;100030.31;;;24.01;36.72
76858;BME280;65830;0.000;0.000;2023-09-30T08:42:35;100026.81;;;23.93;37.11
76858;BME280;65830;0.000;0.000;2023-09-30T08:45:01;100029.31;;;23.95;35.99
76858;BME280;65830;0.000;0.000;2023-09-30T08:47:27;100036.63;;;23.88;35.46
76858;BME280;65830;0.000;0.000;2023-09-30T08:49:59;100036.16;;;23.97;35.30
76858;BME280;65830;0.000;0.000;2023-09-30T08:52:34;100030.94;;;23.96;35.11
76858;BME280;65830;0.000;0.000;2023-09-30T08:55:00;100019.69;;;23.99;35.16
76858;BME280;65830;0.000;0.000;2023-09-30T08:57:26;100019.84;;;24.04;35.00
76858;BME280;65830;0.000;0.000;2023-09-30T08:59:53;100019.75;;;24.17;35.04
76858;BME280;65830;0.000;0.000;2023-09-30T09:02:19;100018.47;;;24.20;35.21
76858;BME280;65830;0.000;0.000;2023-09-30T09:04:47;100022.19;;;24.26;34.94
76858;BME280;65830;0.000;0.000;2023-09-30T09:07:14;100013.63;;;24.29;34.45
76858;BME280;65830;0.000;0.000;2023-09-30T09:09:40;100017.50;;;24.39;34.17
76858;BME280;65830;0.000;0.000;2023-09-30T09:12:05;100016.34;;;24.29;33.79
76858;BME280;65830;0.000;0.000;2023-09-30T09:14:38;100019.22;;;24.34;34.09
76858;BME280;65830;0.000;0.000;2023-09-30T09:17:06;100004.69;;;24.53;34.10
76858;BME280;65830;0.000;0.000;2023-09-30T09:19:32;100018.16;;;24.67;33.85
76858;BME280;65830;0.000;0.000;2023-09-30T09:21:58;100007.22;;;24.73;33.79
76858;BME280;65830;0.000;0.000;2023-09-30T09:24:31;100015.75;;;24.77;33.39
76858;BME280;65830;0.000;0.000;2023-09-30T09:29:32;100012.03;;;24.71;32.68
76858;BME280;65830;0.000;0.000;2023-09-30T09:32:14;99991.44;;;24.64;32.99
76858;BME280;65830;0.000;0.000;2023-09-30T09:34:40;100003.88;;;24.78;32.59
76858;BME280;65830;0.000;0.000;2023-09-30T09:37:18;99997.84;;;24.76;32.92
76858;BME280;65830;0.000;0.000;2023-09-30T09:39:54;99989.97;;;24.68;32.99
76858;BME280;65830;0.000;0.000;2023-09-30T09:42:26;99992.94;;;24.85;33.14
76858;BME280;65830;0.000;0.000;2023-09-30T09:44:56;99986.97;;;24.94;32.53
76858;BME280;65830;0.000;0.000;2023-09-30T09:47:22;99990.53;;;24.95;33.65
76858;BME280;65830;0.000;0.000;2023-09-30T09:49:48;99982.31;;;25.02;32.25
76858;BME280;65830;0.000;0.000;2023-09-30T09:52:15;99973.88;;;25.10;31.82
76858;BME280;65830;0.000;0.000;2023-09-30T09:54:42;99983.53;;;25.24;31.71
76858;BME280;65830;0.000;0.000;2023-09-30T09:57:08;99978.00;;;25.12;30.72
76858;BME280;65830;0.000;0.000;2023-09-30T09:59:36;99970.84;;;25.18;31.30
76858;BME280;65830;0.000;0.000;2023-09-30T10:02:01;99962.16;;;25.09;30.83
76858;BME280;65830;0.000;0.000;2023-09-30T10:04:31;99966.84;;;25.21;29.84
76858;BME280;65830;0.000;0.000;2023-09-30T10:06:58;99965.72;;;25.28;29.76
76858;BME280;65830;0.000;0.000;2023-09-30T10:09:24;99961.28;;;25.34;30.42
76858;BME280;65830;0.000;0.000;2023-09-30T10:11:56;99963.53;;;25.37;30.18
76858;BME280;65830;0.000;0.000;2023-09-30T10:14:33;99954.22;;;25.45;29.72
76858;BME280;65830;0.000;0.000;2023-09-30T10:16:59;99963.13;;;25.52;29.36
76858;BME280;65830;0.000;0.000;2023-09-30T10:19:25;99947.44;;;25.54;29.10
76858;BME280;65830;0.000;0.000;2023-09-30T10:24:36;99941.41;;;25.52;30.15
76858;BME280;65830;0.000;0.000;2023-09-30T10:29:46;99931.16;;;25.66;28.61
76858;BME280;65830;0.000;0.000;2023-09-30T10:32:11;99937.69;;;25.76;29.09
76858;BME280;65830;0.000;0.000;2023-09-30T10:34:37;99931.78;;;25.68;28.56
76858;BME280;65830;0.000;0.000;2023-09-30T10:37:21;99925.59;;;25.61;28.61
76858;BME280;65830;0.000;0.000;2023-09-30T10:50:53;99907.91;;;26.24;27.33
76858;BME280;65830;0.000;0.000;2023-09-30T10:53:20;99905.31;;;26.29;29.14
76858;BME280;65830;0.000;0.000;2023-09-30T10:55:46;99900.22;;;26.44;27.52
76858;BME280;65830;0.000;0.000;2023-09-30T10:58:15;99905.31;;;26.52;26.78
76858;BME280;65830;0.000;0.000;2023-09-30T11:01:01;99905.31;;;26.52;27.46
76858;BME280;65830;0.000;0.000;2023-09-30T11:03:26;99897.03;;;26.59;30.82
76858;BME280;65830;0.000;0.000;2023-09-30T11:05:51;99889.81;;;26.65;27.32
76858;BME280;65830;0.000;0.000;2023-09-30T11:08:18;99889.66;;;26.83;30.15
76858;BME280;65830;0.000;0.000;2023-09-30T11:10:50;99887.94;;;27.06;29.76
76858;BME280;65830;0.000;0.000;2023-09-30T11:13:17;99886.41;;;27.10;30.50
76858;BME280;65830;0.000;0.000;2023-09-30T11:15:43;99882.44;;;27.29;25.23
76858;BME280;65830;0.000;0.000;2023-09-30T11:18:15;99880.56;;;27.47;26.41
76858;BME280;65830;0.000;0.000;2023-09-30T11:20:41;99877.72;;;27.70;25.00
76858;BME280;65830;0.000;0.000;2023-09-30T11:23:07;99867.47;;;27.78;29.00
76858;BME280;65830;0.000;0.000;2023-09-30T11:25:36;99868.25;;;27.90;29.48
76858;BME280;65830;0.000;0.000;2023-09-30T11:28:16;99867.66;;;28.22;24.82
76858;BME280;65830;0.000;0.000;2023-09-30T11:30:57;99871.44;;;28.55;25.22
76858;BME280;65830;0.000;0.000;2023-09-30T11:33:23;99869.78;;;28.76;26.62
76858;BME280;65830;0.000;0.000;2023-09-30T11:36:23;99864.19;;;28.87;27.79
76858;BME280;65830;0.000;0.000;2023-09-30T11:38:44;99862.13;;;29.00;26.82
76858;BME280;65830;0.000;0.000;2023-09-30T11:41:10;99866.63;;;29.11;26.68
76858;BME280;65830;0.000;0.000;2023-09-30T11:43:36;99866.38;;;29.35;25.99
76858;BME280;65830;0.000;0.000;2023-09-30T11:46:05;99857.31;;;29.61;25.54
76858;BME280;65830;0.000;0.000;2023-09-30T11:48:31;99858.03;;;29.79;25.36
76858;BME280;65830;0.000;0.000;2023-09-30T11:50:58;99857.47;;;29.77;26.52
76858;BME280;65830;0.000;0.000;2023-09-30T11:53:24;99860.59;;;29.90;25.04
76858;BME280;65830;0.000;0.000;2023-09-30T11:55:50;99847.72;;;29.86;26.76
76858;BME280;65830;0.000;0.000;2023-09-30T11:58:15;99839.47;;;29.81;26.89
76858;BME280;65830;0.000;0.000;2023-09-30T12:00:44;99847.19;;;29.89;26.68
76858;BME280;65830;0.000;0.000;2023-09-30T12:03:09;99843.88;;;29.87;26.75
76858;BME280;65830;0.000;0.000;2023-09-30T12:05:36;99838.97;;;29.89;27.06
76858;BME280;65830;0.000;0.000;2023-09-30T12:08:02;99836.91;;;30.01;26.71
76858;BME280;65830;0.000;0.000;2023-09-30T12:10:27;99827.69;;;30.18;22.73
76858;BME280;65830;0.000;0.000;2023-09-30T12:12:53;99829.47;;;30.39;25.90
76858;BME280;65830;0.000;0.000;2023-09-30T12:15:19;99830.91;;;30.52;25.94
76858;BME280;65830;0.000;0.000;2023-09-30T12:17:45;99817.03;;;30.69;25.45
76858;BME280;65830;0.000;0.000;2023-09-30T12:20:11;99827.47;;;30.82;25.61
76858;BME280;65830;0.000;0.000;2023-09-30T12:22:39;99813.59;;;31.15;20.56
76858;BME280;65830;0.000;0.000;2023-09-30T12:25:05;99807.31;;;31.35;21.98
76858;BME280;65830;0.000;0.000;2023-09-30T12:27:31;99805.72;;;31.54;22.13
76858;BME280;65830;0.000;0.000;2023-09-30T12:29:57;99808.47;;;31.64;22.10
76858;BME280;65830;0.000;0.000;2023-09-30T12:32:23;99806.28;;;31.72;22.75
76858;BME280;65830;0.000;0.000;2023-09-30T12:34:48;99804.63;;;31.50;23.48
76858;BME280;65830;0.000;0.000;2023-09-30T12:37:14;99791.41;;;31.21;24.40
76858;BME280;65830;0.000;0.000;2023-09-30T12:39:39;99799.03;;;30.88;24.73
76858;BME280;65830;0.000;0.000;2023-09-30T12:42:05;99795.06;;;30.59;25.50
76858;BME280;65830;0.000;0.000;2023-09-30T12:44:34;99795.63;;;30.66;23.49
76858;BME280;65830;0.000;0.000;2023-09-30T12:46:59;99782.91;;;31.18;23.90
76858;BME280;65830;0.000;0.000;2023-09-30T12:49:25;99784.84;;;31.27;24.39
76858;BME280;65830;0.000;0.000;2023-09-30T12:51:50;99774.72;;;31.28;24.40
76858;BME280;65830;0.000;0.000;2023-09-30T12:54:16;99775.50;;;31.34;24.26
76858;BME280;65830;0.000;0.000;2023-09-30T12:56:43;99781.00;;;31.28;21.59
76858;BME280;65830;0.000;0.000;2023-09-30T12:59:09;99777.75;;;31.47;23.20
76858;BME280;65830;0.000;0.000;2023-09-30T13:01:35;99774.47;;;31.50;21.51
76858;BME280;65830;0.000;0.000;2023-09-30T13:04:00;99774.72;;;31.28;24.45
76858;BME280;65830;0.000;0.000;2023-09-30T13:06:26;99773.28;;;31.00;24.75
76858;BME280;65830;0.000;0.000;2023-09-30T13:08:51;99770.28;;;30.91;23.58
76858;BME280;65830;0.000;0.000;2023-09-30T13:11:17;99770.75;;;30.88;24.72
76858;BME280;65830;0.000;0.000;2023-09-30T13:13:43;99768.28;;;30.71;24.69
76858;BME280;65830;0.000;0.000;2023-09-30T13:16:10;99760.91;;;30.87;22.82
76858;BME280;65830;0.000;0.000;2023-09-30T13:18:36;99763.13;;;30.90;23.87
76858;BME280;65830;0.000;0.000;2023-09-30T13:21:02;99756.22;;;30.67;25.08
76858;BME280;65830;0.000;0.000;2023-09-30T13:23:31;99757.88;;;30.83;20.73
76858;BME280;65830;0.000;0.000;2023-09-30T13:25:56;99753.59;;;31.13;23.36
76858;BME280;65830;0.000;0.000;2023-09-30T13:28:22;99752.50;;;31.14;20.38
76858;BME280;65830;0.000;0.000;2023-09-30T13:30:48;99745.91;;;31.15;23.90